Terminal Aerodrome Forecast
Issued by NWS Cheyenne, WY

Home | Current Version | Previous Version | Text Only | Print | Product List | Glossary On
Versions: 1 2 3 4 5 6 7 8 9 10 11 12 13 14 15 16
000
FTUS45 KCYS 290520
TAFCYS
TAF
KCYS 290520Z 2906/3006 26008KT P6SM SCT100
     FM292200 14010G20KT P6SM VCTS BKN100CB
     FM300100 03008KT P6SM SCT100=

USA.gov is the U.S. government's official web portal to all federal, state and local government web resources and services.